sensor_id;sensor_type;location;lat;lon;timestamp;P1;durP1;ratioP1;P2;durP2;ratioP2
27489;SDS011;14925;51.026;13.752;2022-12-13T00:01:16;46.92;;;22.30;;
27489;SDS011;14925;51.026;13.752;2022-12-13T00:03:42;46.45;;;20.60;;
27489;SDS011;14925;51.026;13.752;2022-12-13T00:06:08;40.67;;;19.33;;
27489;SDS011;14925;51.026;13.752;2022-12-13T00:08:34;35.58;;;17.90;;
27489;SDS011;14925;51.026;13.752;2022-12-13T00:11:01;33.45;;;17.13;;
27489;SDS011;14925;51.026;13.752;2022-12-13T00:13:27;33.65;;;16.77;;
27489;SDS011;14925;51.026;13.752;2022-12-13T00:15:57;30.55;;;16.13;;
27489;SDS011;14925;51.026;13.752;2022-12-13T00:18:26;31.92;;;16.17;;
27489;SDS011;14925;51.026;13.752;2022-12-13T00:20:52;29.77;;;15.52;;
27489;SDS011;14925;51.026;13.752;2022-12-13T00:23:18;28.73;;;15.40;;
27489;SDS011;14925;51.026;13.752;2022-12-13T00:25:44;35.78;;;16.38;;
27489;SDS011;14925;51.026;13.752;2022-12-13T00:28:10;31.58;;;15.85;;
27489;SDS011;14925;51.026;13.752;2022-12-13T00:30:36;34.45;;;16.63;;
27489;SDS011;14925;51.026;13.752;2022-12-13T00:33:01;32.92;;;16.42;;
27489;SDS011;14925;51.026;13.752;2022-12-13T00:35:28;31.10;;;16.13;;
27489;SDS011;14925;51.026;13.752;2022-12-13T00:37:54;33.40;;;16.80;;
27489;SDS011;14925;51.026;13.752;2022-12-13T00:40:19;28.65;;;15.25;;
27489;SDS011;14925;51.026;13.752;2022-12-13T00:42:45;28.38;;;14.57;;
27489;SDS011;14925;51.026;13.752;2022-12-13T00:45:10;27.92;;;15.20;;
27489;SDS011;14925;51.026;13.752;2022-12-13T00:47:36;31.70;;;14.98;;
27489;SDS011;14925;51.026;13.752;2022-12-13T00:50:04;25.40;;;14.00;;
27489;SDS011;14925;51.026;13.752;2022-12-13T00:52:30;27.73;;;14.75;;
27489;SDS011;14925;51.026;13.752;2022-12-13T00:54:58;22.55;;;12.95;;
27489;SDS011;14925;51.026;13.752;2022-12-13T00:57:23;33.22;;;15.65;;
27489;SDS011;14925;51.026;13.752;2022-12-13T00:59:49;36.58;;;16.17;;
27489;SDS011;14925;51.026;13.752;2022-12-13T01:02:14;32.75;;;16.13;;
27489;SDS011;14925;51.026;13.752;2022-12-13T01:04:40;36.53;;;16.30;;
27489;SDS011;14925;51.026;13.752;2022-12-13T01:07:05;34.25;;;16.52;;
27489;SDS011;14925;51.026;13.752;2022-12-13T01:09:31;35.33;;;16.50;;
27489;SDS011;14925;51.026;13.752;2022-12-13T01:11:58;31.05;;;15.68;;
27489;SDS011;14925;51.026;13.752;2022-12-13T01:14:25;33.42;;;16.20;;
27489;SDS011;14925;51.026;13.752;2022-12-13T01:16:51;29.38;;;14.20;;
27489;SDS011;14925;51.026;13.752;2022-12-13T01:19:20;30.23;;;14.88;;
27489;SDS011;14925;51.026;13.752;2022-12-13T01:21:46;26.65;;;13.15;;
27489;SDS011;14925;51.026;13.752;2022-12-13T01:24:12;24.30;;;12.75;;
27489;SDS011;14925;51.026;13.752;2022-12-13T01:26:37;28.40;;;15.07;;
27489;SDS011;14925;51.026;13.752;2022-12-13T01:29:03;26.85;;;14.25;;
27489;SDS011;14925;51.026;13.752;2022-12-13T01:31:29;29.17;;;15.43;;
27489;SDS011;14925;51.026;13.752;2022-12-13T01:33:55;27.40;;;15.30;;
27489;SDS011;14925;51.026;13.752;2022-12-13T01:36:21;28.67;;;14.68;;
27489;SDS011;14925;51.026;13.752;2022-12-13T01:38:47;26.58;;;15.27;;
27489;SDS011;14925;51.026;13.752;2022-12-13T01:41:13;30.88;;;15.95;;
27489;SDS011;14925;51.026;13.752;2022-12-13T01:46:05;28.70;;;16.13;;
27489;SDS011;14925;51.026;13.752;2022-12-13T01:48:32;31.45;;;15.98;;
27489;SDS011;14925;51.026;13.752;2022-12-13T01:51:01;32.53;;;16.27;;
27489;SDS011;14925;51.026;13.752;2022-12-13T01:53:29;28.40;;;15.77;;
27489;SDS011;14925;51.026;13.752;2022-12-13T01:55:57;27.08;;;15.25;;
27489;SDS011;14925;51.026;13.752;2022-12-13T01:58:26;27.48;;;15.20;;
27489;SDS011;14925;51.026;13.752;2022-12-13T02:00:51;26.80;;;14.27;;
27489;SDS011;14925;51.026;13.752;2022-12-13T02:03:17;28.58;;;14.88;;
27489;SDS011;14925;51.026;13.752;2022-12-13T02:05:46;28.05;;;14.32;;
27489;SDS011;14925;51.026;13.752;2022-12-13T02:08:17;29.98;;;16.58;;
27489;SDS011;14925;51.026;13.752;2022-12-13T02:10:43;29.42;;;16.23;;
27489;SDS011;14925;51.026;13.752;2022-12-13T02:13:09;30.70;;;16.27;;
27489;SDS011;14925;51.026;13.752;2022-12-13T02:15:39;28.65;;;16.85;;
27489;SDS011;14925;51.026;13.752;2022-12-13T02:18:34;33.90;;;18.63;;
27489;SDS011;14925;51.026;13.752;2022-12-13T02:29:45;34.20;;;17.75;;
27489;SDS011;14925;51.026;13.752;2022-12-13T02:32:27;30.20;;;16.55;;
27489;SDS011;14925;51.026;13.752;2022-12-13T02:38:10;32.30;;;16.83;;
27489;SDS011;14925;51.026;13.752;2022-12-13T02:40:44;28.33;;;16.25;;
27489;SDS011;14925;51.026;13.752;2022-12-13T02:43:19;28.77;;;15.82;;
27489;SDS011;14925;51.026;13.752;2022-12-13T02:45:48;27.45;;;15.70;;
27489;SDS011;14925;51.026;13.752;2022-12-13T02:48:16;30.33;;;16.73;;
27489;SDS011;14925;51.026;13.752;2022-12-13T02:50:44;31.30;;;16.40;;
27489;SDS011;14925;51.026;13.752;2022-12-13T02:53:10;28.45;;;15.85;;
27489;SDS011;14925;51.026;13.752;2022-12-13T02:55:37;27.77;;;15.60;;
27489;SDS011;14925;51.026;13.752;2022-12-13T02:58:03;30.23;;;15.70;;
27489;SDS011;14925;51.026;13.752;2022-12-13T03:03:36;29.15;;;15.70;;
27489;SDS011;14925;51.026;13.752;2022-12-13T03:14:30;30.50;;;15.93;;
27489;SDS011;14925;51.026;13.752;2022-12-13T03:16:57;30.17;;;15.93;;
27489;SDS011;14925;51.026;13.752;2022-12-13T03:19:24;30.02;;;16.42;;
27489;SDS011;14925;51.026;13.752;2022-12-13T03:21:50;28.15;;;15.60;;
27489;SDS011;14925;51.026;13.752;2022-12-13T03:24:16;29.67;;;16.88;;
27489;SDS011;14925;51.026;13.752;2022-12-13T03:26:43;28.75;;;16.30;;
27489;SDS011;14925;51.026;13.752;2022-12-13T03:29:09;29.63;;;15.95;;
27489;SDS011;14925;51.026;13.752;2022-12-13T03:31:34;27.98;;;15.32;;
27489;SDS011;14925;51.026;13.752;2022-12-13T03:34:00;28.45;;;15.55;;
27489;SDS011;14925;51.026;13.752;2022-12-13T03:36:25;27.75;;;15.98;;
27489;SDS011;14925;51.026;13.752;2022-12-13T03:38:53;27.65;;;16.10;;
27489;SDS011;14925;51.026;13.752;2022-12-13T03:41:19;30.70;;;16.40;;
27489;SDS011;14925;51.026;13.752;2022-12-13T03:43:46;31.67;;;16.85;;
27489;SDS011;14925;51.026;13.752;2022-12-13T03:46:12;32.45;;;17.40;;
27489;SDS011;14925;51.026;13.752;2022-12-13T03:48:37;31.58;;;16.45;;
27489;SDS011;14925;51.026;13.752;2022-12-13T03:51:06;30.27;;;16.58;;
27489;SDS011;14925;51.026;13.752;2022-12-13T03:53:31;30.25;;;15.98;;
27489;SDS011;14925;51.026;13.752;2022-12-13T03:55:57;34.75;;;17.40;;
27489;SDS011;14925;51.026;13.752;2022-12-13T03:58:22;34.05;;;18.17;;
27489;SDS011;14925;51.026;13.752;2022-12-13T04:00:48;34.63;;;18.00;;
27489;SDS011;14925;51.026;13.752;2022-12-13T04:03:13;31.88;;;17.27;;
27489;SDS011;14925;51.026;13.752;2022-12-13T04:05:39;31.98;;;17.67;;
27489;SDS011;14925;51.026;13.752;2022-12-13T04:08:04;35.00;;;18.55;;
27489;SDS011;14925;51.026;13.752;2022-12-13T04:10:30;32.60;;;16.70;;
27489;SDS011;14925;51.026;13.752;2022-12-13T04:12:58;34.00;;;18.00;;
27489;SDS011;14925;51.026;13.752;2022-12-13T04:15:45;31.60;;;16.55;;
27489;SDS011;14925;51.026;13.752;2022-12-13T04:18:19;29.40;;;16.40;;
27489;SDS011;14925;51.026;13.752;2022-12-13T04:20:44;31.73;;;16.75;;
27489;SDS011;14925;51.026;13.752;2022-12-13T04:23:10;30.23;;;16.42;;
27489;SDS011;14925;51.026;13.752;2022-12-13T04:25:35;30.60;;;16.27;;
27489;SDS011;14925;51.026;13.752;2022-12-13T04:28:01;31.38;;;16.83;;
27489;SDS011;14925;51.026;13.752;2022-12-13T04:30:27;28.85;;;16.55;;
27489;SDS011;14925;51.026;13.752;2022-12-13T04:32:52;32.80;;;17.75;;
27489;SDS011;14925;51.026;13.752;2022-12-13T04:35:17;34.33;;;17.00;;
27489;SDS011;14925;51.026;13.752;2022-12-13T04:37:43;33.13;;;17.48;;
27489;SDS011;14925;51.026;13.752;2022-12-13T04:40:08;37.10;;;18.02;;
27489;SDS011;14925;51.026;13.752;2022-12-13T04:42:34;36.80;;;19.00;;
27489;SDS011;14925;51.026;13.752;2022-12-13T04:45:00;39.92;;;18.67;;
27489;SDS011;14925;51.026;13.752;2022-12-13T04:47:25;38.38;;;18.58;;
27489;SDS011;14925;51.026;13.752;2022-12-13T04:49:50;34.90;;;18.67;;
27489;SDS011;14925;51.026;13.752;2022-12-13T04:52:16;37.97;;;19.45;;
27489;SDS011;14925;51.026;13.752;2022-12-13T04:54:41;41.92;;;20.00;;
27489;SDS011;14925;51.026;13.752;2022-12-13T04:57:09;40.22;;;19.73;;
27489;SDS011;14925;51.026;13.752;2022-12-13T04:59:35;42.25;;;19.52;;
27489;SDS011;14925;51.026;13.752;2022-12-13T05:02:01;41.75;;;20.90;;
27489;SDS011;14925;51.026;13.752;2022-12-13T05:04:27;43.75;;;21.25;;
27489;SDS011;14925;51.026;13.752;2022-12-13T05:06:53;39.58;;;20.05;;
27489;SDS011;14925;51.026;13.752;2022-12-13T05:09:18;43.80;;;21.67;;
27489;SDS011;14925;51.026;13.752;2022-12-13T05:11:43;38.65;;;20.65;;
27489;SDS011;14925;51.026;13.752;2022-12-13T05:14:09;42.50;;;21.20;;
27489;SDS011;14925;51.026;13.752;2022-12-13T05:16:34;42.08;;;21.90;;
27489;SDS011;14925;51.026;13.752;2022-12-13T05:18:59;50.15;;;26.60;;
27489;SDS011;14925;51.026;13.752;2022-12-13T05:21:28;57.22;;;27.52;;
27489;SDS011;14925;51.026;13.752;2022-12-13T05:23:53;71.80;;;34.58;;
27489;SDS011;14925;51.026;13.752;2022-12-13T05:26:18;56.97;;;28.20;;
27489;SDS011;14925;51.026;13.752;2022-12-13T05:28:44;60.72;;;28.42;;
27489;SDS011;14925;51.026;13.752;2022-12-13T05:31:10;50.90;;;25.95;;
27489;SDS011;14925;51.026;13.752;2022-12-13T05:33:36;58.45;;;26.63;;
27489;SDS011;14925;51.026;13.752;2022-12-13T05:36:01;49.35;;;24.13;;
27489;SDS011;14925;51.026;13.752;2022-12-13T05:38:29;45.90;;;22.88;;
27489;SDS011;14925;51.026;13.752;2022-12-13T05:40:55;48.60;;;24.35;;
27489;SDS011;14925;51.026;13.752;2022-12-13T05:43:21;51.60;;;24.27;;
27489;SDS011;14925;51.026;13.752;2022-12-13T05:45:48;48.30;;;23.02;;
27489;SDS011;14925;51.026;13.752;2022-12-13T05:48:14;49.85;;;23.35;;
27489;SDS011;14925;51.026;13.752;2022-12-13T05:50:40;51.15;;;24.92;;
27489;SDS011;14925;51.026;13.752;2022-12-13T05:53:05;51.00;;;23.63;;
27489;SDS011;14925;51.026;13.752;2022-12-13T05:55:31;54.75;;;24.88;;
27489;SDS011;14925;51.026;13.752;2022-12-13T05:57:57;53.47;;;25.38;;
27489;SDS011;14925;51.026;13.752;2022-12-13T06:00:23;53.33;;;24.65;;
27489;SDS011;14925;51.026;13.752;2022-12-13T06:02:48;54.47;;;25.70;;
27489;SDS011;14925;51.026;13.752;2022-12-13T06:05:14;50.00;;;24.05;;
27489;SDS011;14925;51.026;13.752;2022-12-13T06:07:39;58.13;;;25.05;;
27489;SDS011;14925;51.026;13.752;2022-12-13T06:10:05;51.33;;;24.15;;
27489;SDS011;14925;51.026;13.752;2022-12-13T06:12:35;53.45;;;24.38;;
27489;SDS011;14925;51.026;13.752;2022-12-13T06:15:00;48.30;;;23.20;;
27489;SDS011;14925;51.026;13.752;2022-12-13T06:17:35;54.00;;;24.05;;
27489;SDS011;14925;51.026;13.752;2022-12-13T06:20:02;59.25;;;26.13;;
27489;SDS011;14925;51.026;13.752;2022-12-13T06:22:29;66.72;;;28.83;;
27489;SDS011;14925;51.026;13.752;2022-12-13T06:24:54;93.72;;;38.63;;
27489;SDS011;14925;51.026;13.752;2022-12-13T06:27:20;97.40;;;41.35;;
27489;SDS011;14925;51.026;13.752;2022-12-13T06:29:45;103.30;;;40.83;;
27489;SDS011;14925;51.026;13.752;2022-12-13T06:32:10;108.85;;;42.95;;
27489;SDS011;14925;51.026;13.752;2022-12-13T06:34:36;92.97;;;39.55;;
27489;SDS011;14925;51.026;13.752;2022-12-13T06:37:02;83.53;;;33.88;;
27489;SDS011;14925;51.026;13.752;2022-12-13T06:39:28;70.20;;;29.80;;
27489;SDS011;14925;51.026;13.752;2022-12-13T06:41:54;57.00;;;26.20;;
27489;SDS011;14925;51.026;13.752;2022-12-13T06:44:19;61.28;;;27.02;;
27489;SDS011;14925;51.026;13.752;2022-12-13T06:46:45;57.63;;;23.98;;
27489;SDS011;14925;51.026;13.752;2022-12-13T06:49:10;54.63;;;24.75;;
27489;SDS011;14925;51.026;13.752;2022-12-13T06:51:36;54.25;;;24.17;;
27489;SDS011;14925;51.026;13.752;2022-12-13T06:54:01;51.40;;;24.23;;
27489;SDS011;14925;51.026;13.752;2022-12-13T06:56:27;55.05;;;25.20;;
27489;SDS011;14925;51.026;13.752;2022-12-13T06:58:53;65.65;;;28.88;;
27489;SDS011;14925;51.026;13.752;2022-12-13T07:01:19;80.45;;;33.03;;
27489;SDS011;14925;51.026;13.752;2022-12-13T07:03:44;82.97;;;33.55;;
27489;SDS011;14925;51.026;13.752;2022-12-13T07:06:17;65.70;;;27.67;;
27489;SDS011;14925;51.026;13.752;2022-12-13T07:08:49;58.33;;;26.60;;
27489;SDS011;14925;51.026;13.752;2022-12-13T07:11:17;60.95;;;27.85;;
27489;SDS011;14925;51.026;13.752;2022-12-13T07:13:43;64.45;;;27.35;;
27489;SDS011;14925;51.026;13.752;2022-12-13T07:16:09;61.42;;;26.40;;
27489;SDS011;14925;51.026;13.752;2022-12-13T07:18:34;59.53;;;26.10;;
27489;SDS011;14925;51.026;13.752;2022-12-13T07:21:03;60.05;;;26.55;;
27489;SDS011;14925;51.026;13.752;2022-12-13T07:23:30;64.20;;;27.75;;
27489;SDS011;14925;51.026;13.752;2022-12-13T07:25:56;66.78;;;28.58;;
27489;SDS011;14925;51.026;13.752;2022-12-13T07:28:21;59.75;;;26.05;;
27489;SDS011;14925;51.026;13.752;2022-12-13T07:30:49;61.72;;;26.65;;
27489;SDS011;14925;51.026;13.752;2022-12-13T07:33:15;58.28;;;26.38;;
27489;SDS011;14925;51.026;13.752;2022-12-13T07:35:40;60.13;;;26.20;;
27489;SDS011;14925;51.026;13.752;2022-12-13T07:38:06;60.83;;;26.95;;
27489;SDS011;14925;51.026;13.752;2022-12-13T07:40:32;52.83;;;24.98;;
27489;SDS011;14925;51.026;13.752;2022-12-13T07:43:01;52.53;;;26.08;;
27489;SDS011;14925;51.026;13.752;2022-12-13T07:45:27;61.95;;;27.08;;
27489;SDS011;14925;51.026;13.752;2022-12-13T07:47:53;58.78;;;25.95;;
27489;SDS011;14925;51.026;13.752;2022-12-13T07:50:18;59.03;;;26.75;;
27489;SDS011;14925;51.026;13.752;2022-12-13T07:52:49;58.05;;;26.65;;
27489;SDS011;14925;51.026;13.752;2022-12-13T07:55:15;55.33;;;26.35;;
27489;SDS011;14925;51.026;13.752;2022-12-13T07:57:41;57.97;;;25.75;;
27489;SDS011;14925;51.026;13.752;2022-12-13T08:00:07;63.80;;;26.80;;
27489;SDS011;14925;51.026;13.752;2022-12-13T08:02:33;60.10;;;27.17;;
27489;SDS011;14925;51.026;13.752;2022-12-13T08:04:59;56.70;;;26.58;;
27489;SDS011;14925;51.026;13.752;2022-12-13T08:07:25;57.58;;;25.52;;
27489;SDS011;14925;51.026;13.752;2022-12-13T08:09:50;59.10;;;24.52;;
27489;SDS011;14925;51.026;13.752;2022-12-13T08:12:15;55.80;;;24.48;;
27489;SDS011;14925;51.026;13.752;2022-12-13T08:14:41;59.28;;;25.77;;
27489;SDS011;14925;51.026;13.752;2022-12-13T08:17:06;55.17;;;25.23;;
27489;SDS011;14925;51.026;13.752;2022-12-13T08:19:32;57.10;;;25.77;;
27489;SDS011;14925;51.026;13.752;2022-12-13T08:21:57;53.08;;;24.45;;
27489;SDS011;14925;51.026;13.752;2022-12-13T08:24:23;53.45;;;25.15;;
27489;SDS011;14925;51.026;13.752;2022-12-13T08:26:49;56.42;;;25.27;;
27489;SDS011;14925;51.026;13.752;2022-12-13T08:29:15;57.65;;;26.02;;
27489;SDS011;14925;51.026;13.752;2022-12-13T08:31:40;56.75;;;25.35;;
27489;SDS011;14925;51.026;13.752;2022-12-13T08:34:05;54.10;;;24.85;;
27489;SDS011;14925;51.026;13.752;2022-12-13T08:36:43;50.70;;;24.50;;
27489;SDS011;14925;51.026;13.752;2022-12-13T08:39:08;51.67;;;23.98;;
27489;SDS011;14925;51.026;13.752;2022-12-13T08:41:34;62.35;;;26.67;;
27489;SDS011;14925;51.026;13.752;2022-12-13T08:43:59;73.65;;;29.60;;
27489;SDS011;14925;51.026;13.752;2022-12-13T08:46:24;61.45;;;26.45;;
27489;SDS011;14925;51.026;13.752;2022-12-13T08:48:51;65.97;;;28.90;;
27489;SDS011;14925;51.026;13.752;2022-12-13T08:51:17;66.35;;;27.48;;
27489;SDS011;14925;51.026;13.752;2022-12-13T08:53:47;57.88;;;25.52;;
27489;SDS011;14925;51.026;13.752;2022-12-13T08:56:14;51.35;;;24.30;;
27489;SDS011;14925;51.026;13.752;2022-12-13T08:58:39;57.60;;;25.23;;
27489;SDS011;14925;51.026;13.752;2022-12-13T09:01:05;51.63;;;24.67;;
27489;SDS011;14925;51.026;13.752;2022-12-13T09:03:31;53.47;;;23.75;;
27489;SDS011;14925;51.026;13.752;2022-12-13T09:05:56;53.50;;;23.98;;
27489;SDS011;14925;51.026;13.752;2022-12-13T09:08:22;59.17;;;25.13;;
27489;SDS011;14925;51.026;13.752;2022-12-13T09:11:00;52.40;;;23.67;;
27489;SDS011;14925;51.026;13.752;2022-12-13T09:13:27;54.50;;;25.30;;
27489;SDS011;14925;51.026;13.752;2022-12-13T09:15:53;56.08;;;24.98;;
27489;SDS011;14925;51.026;13.752;2022-12-13T09:18:18;54.28;;;23.88;;
27489;SDS011;14925;51.026;13.752;2022-12-13T09:20:44;51.13;;;23.73;;
27489;SDS011;14925;51.026;13.752;2022-12-13T09:23:09;49.90;;;22.98;;
27489;SDS011;14925;51.026;13.752;2022-12-13T09:25:35;45.08;;;21.60;;
27489;SDS011;14925;51.026;13.752;2022-12-13T09:28:00;49.33;;;23.52;;
27489;SDS011;14925;51.026;13.752;2022-12-13T09:30:26;50.75;;;23.40;;
27489;SDS011;14925;51.026;13.752;2022-12-13T09:32:52;43.15;;;20.92;;
27489;SDS011;14925;51.026;13.752;2022-12-13T09:35:17;44.40;;;21.50;;
27489;SDS011;14925;51.026;13.752;2022-12-13T09:37:42;43.85;;;21.13;;
27489;SDS011;14925;51.026;13.752;2022-12-13T09:40:09;47.03;;;22.02;;
27489;SDS011;14925;51.026;13.752;2022-12-13T09:42:37;44.60;;;21.30;;
27489;SDS011;14925;51.026;13.752;2022-12-13T09:45:04;42.33;;;20.05;;
27489;SDS011;14925;51.026;13.752;2022-12-13T09:47:35;43.88;;;21.30;;
27489;SDS011;14925;51.026;13.752;2022-12-13T09:50:06;40.83;;;20.25;;
27489;SDS011;14925;51.026;13.752;2022-12-13T09:52:37;38.03;;;18.75;;
27489;SDS011;14925;51.026;13.752;2022-12-13T09:55:09;37.40;;;18.13;;
27489;SDS011;14925;51.026;13.752;2022-12-13T09:57:59;39.15;;;18.60;;
27489;SDS011;14925;51.026;13.752;2022-12-13T10:00:36;33.63;;;16.10;;
27489;SDS011;14925;51.026;13.752;2022-12-13T10:03:01;32.13;;;16.50;;
27489;SDS011;14925;51.026;13.752;2022-12-13T10:05:35;33.70;;;17.08;;
27489;SDS011;14925;51.026;13.752;2022-12-13T10:08:06;35.50;;;16.75;;
27489;SDS011;14925;51.026;13.752;2022-12-13T10:15:50;34.58;;;17.85;;
27489;SDS011;14925;51.026;13.752;2022-12-13T10:18:22;33.60;;;16.73;;
27489;SDS011;14925;51.026;13.752;2022-12-13T10:20:51;43.67;;;18.40;;
27489;SDS011;14925;51.026;13.752;2022-12-13T10:23:17;35.65;;;17.92;;
27489;SDS011;14925;51.026;13.752;2022-12-13T10:25:44;40.05;;;18.95;;
27489;SDS011;14925;51.026;13.752;2022-12-13T10:28:12;32.38;;;17.05;;
27489;SDS011;14925;51.026;13.752;2022-12-13T10:30:40;37.53;;;18.67;;
27489;SDS011;14925;51.026;13.752;2022-12-13T10:33:08;40.60;;;18.45;;
27489;SDS011;14925;51.026;13.752;2022-12-13T10:35:43;36.63;;;17.95;;
27489;SDS011;14925;51.026;13.752;2022-12-13T10:38:48;38.42;;;16.77;;
27489;SDS011;14925;51.026;13.752;2022-12-13T10:41:34;33.55;;;16.88;;
27489;SDS011;14925;51.026;13.752;2022-12-13T10:46:35;33.72;;;17.30;;
27489;SDS011;14925;51.026;13.752;2022-12-13T10:49:02;33.70;;;17.33;;
27489;SDS011;14925;51.026;13.752;2022-12-13T10:51:29;38.50;;;18.63;;
27489;SDS011;14925;51.026;13.752;2022-12-13T10:54:02;35.78;;;16.83;;
27489;SDS011;14925;51.026;13.752;2022-12-13T10:56:35;34.35;;;17.27;;
27489;SDS011;14925;51.026;13.752;2022-12-13T11:01:44;33.30;;;17.60;;
27489;SDS011;14925;51.026;13.752;2022-12-13T11:06:53;36.10;;;17.52;;
27489;SDS011;14925;51.026;13.752;2022-12-13T11:09:30;34.30;;;17.45;;
27489;SDS011;14925;51.026;13.752;2022-12-13T11:11:57;32.55;;;16.35;;
27489;SDS011;14925;51.026;13.752;2022-12-13T11:14:26;34.80;;;16.33;;
27489;SDS011;14925;51.026;13.752;2022-12-13T11:16:54;34.50;;;16.58;;
27489;SDS011;14925;51.026;13.752;2022-12-13T11:19:43;32.38;;;15.93;;
27489;SDS011;14925;51.026;13.752;2022-12-13T11:22:17;29.05;;;15.73;;
27489;SDS011;14925;51.026;13.752;2022-12-13T11:24:47;32.42;;;16.40;;
27489;SDS011;14925;51.026;13.752;2022-12-13T11:30:11;36.25;;;16.77;;
27489;SDS011;14925;51.026;13.752;2022-12-13T11:33:04;38.35;;;18.52;;
27489;SDS011;14925;51.026;13.752;2022-12-13T11:41:18;31.90;;;15.88;;
27489;SDS011;14925;51.026;13.752;2022-12-13T11:43:47;34.20;;;16.45;;
27489;SDS011;14925;51.026;13.752;2022-12-13T11:46:24;30.17;;;15.82;;
27489;SDS011;14925;51.026;13.752;2022-12-13T11:48:59;29.48;;;15.35;;
27489;SDS011;14925;51.026;13.752;2022-12-13T11:51:30;30.35;;;16.02;;
27489;SDS011;14925;51.026;13.752;2022-12-13T11:54:22;31.13;;;15.52;;
27489;SDS011;14925;51.026;13.752;2022-12-13T11:56:56;32.28;;;16.33;;
27489;SDS011;14925;51.026;13.752;2022-12-13T12:01:54;32.30;;;16.33;;
27489;SDS011;14925;51.026;13.752;2022-12-13T12:04:58;32.70;;;16.10;;
27489;SDS011;14925;51.026;13.752;2022-12-13T12:07:39;30.80;;;15.73;;
27489;SDS011;14925;51.026;13.752;2022-12-13T12:10:18;33.28;;;15.95;;
27489;SDS011;14925;51.026;13.752;2022-12-13T12:12:49;33.35;;;17.15;;
27489;SDS011;14925;51.026;13.752;2022-12-13T12:15:21;33.72;;;15.50;;
27489;SDS011;14925;51.026;13.752;2022-12-13T12:17:49;28.00;;;14.30;;
27489;SDS011;14925;51.026;13.752;2022-12-13T12:20:15;26.77;;;14.73;;
27489;SDS011;14925;51.026;13.752;2022-12-13T12:25:34;29.00;;;14.20;;
27489;SDS011;14925;51.026;13.752;2022-12-13T12:31:16;27.80;;;14.18;;
27489;SDS011;14925;51.026;13.752;2022-12-13T12:34:06;26.05;;;13.43;;
27489;SDS011;14925;51.026;13.752;2022-12-13T12:37:10;27.55;;;13.85;;
27489;SDS011;14925;51.026;13.752;2022-12-13T12:50:47;20.98;;;11.32;;
27489;SDS011;14925;51.026;13.752;2022-12-13T12:53:30;25.45;;;11.90;;
27489;SDS011;14925;51.026;13.752;2022-12-13T12:56:06;22.27;;;11.70;;
27489;SDS011;14925;51.026;13.752;2022-12-13T13:01:42;25.23;;;13.02;;
27489;SDS011;14925;51.026;13.752;2022-12-13T13:04:14;24.80;;;14.27;;
27489;SDS011;14925;51.026;13.752;2022-12-13T13:06:44;24.42;;;13.52;;
27489;SDS011;14925;51.026;13.752;2022-12-13T13:09:12;26.73;;;15.25;;
27489;SDS011;14925;51.026;13.752;2022-12-13T13:11:39;29.42;;;14.40;;
27489;SDS011;14925;51.026;13.752;2022-12-13T13:16:49;26.33;;;13.75;;
27489;SDS011;14925;51.026;13.752;2022-12-13T13:21:44;23.92;;;12.80;;
27489;SDS011;14925;51.026;13.752;2022-12-13T13:26:40;25.05;;;11.63;;
27489;SDS011;14925;51.026;13.752;2022-12-13T13:34:22;31.33;;;13.10;;
27489;SDS011;14925;51.026;13.752;2022-12-13T13:36:50;21.10;;;12.13;;
27489;SDS011;14925;51.026;13.752;2022-12-13T13:39:51;23.45;;;12.50;;
27489;SDS011;14925;51.026;13.752;2022-12-13T13:47:15;22.75;;;12.05;;
27489;SDS011;14925;51.026;13.752;2022-12-13T13:49:55;22.13;;;11.52;;
27489;SDS011;14925;51.026;13.752;2022-12-13T13:52:36;22.08;;;11.93;;
27489;SDS011;14925;51.026;13.752;2022-12-13T14:15:38;25.27;;;13.68;;
27489;SDS011;14925;51.026;13.752;2022-12-13T14:23:57;30.95;;;15.27;;
27489;SDS011;14925;51.026;13.752;2022-12-13T14:26:42;28.73;;;15.18;;
27489;SDS011;14925;51.026;13.752;2022-12-13T14:29:48;30.73;;;15.60;;
27489;SDS011;14925;51.026;13.752;2022-12-13T14:37:28;28.05;;;14.93;;
27489;SDS011;14925;51.026;13.752;2022-12-13T14:39:57;34.92;;;16.00;;
27489;SDS011;14925;51.026;13.752;2022-12-13T14:42:24;34.13;;;17.73;;
27489;SDS011;14925;51.026;13.752;2022-12-13T14:44:51;31.67;;;16.00;;
27489;SDS011;14925;51.026;13.752;2022-12-13T14:47:17;35.63;;;17.70;;
27489;SDS011;14925;51.026;13.752;2022-12-13T14:49:43;34.83;;;16.85;;
27489;SDS011;14925;51.026;13.752;2022-12-13T14:52:15;35.90;;;17.90;;
27489;SDS011;14925;51.026;13.752;2022-12-13T14:54:55;35.90;;;18.08;;
27489;SDS011;14925;51.026;13.752;2022-12-13T14:57:25;36.85;;;18.65;;
27489;SDS011;14925;51.026;13.752;2022-12-13T14:59:53;39.80;;;18.35;;
27489;SDS011;14925;51.026;13.752;2022-12-13T15:02:30;38.33;;;17.23;;
27489;SDS011;14925;51.026;13.752;2022-12-13T15:05:04;36.92;;;18.52;;
27489;SDS011;14925;51.026;13.752;2022-12-13T15:07:39;41.60;;;19.08;;
27489;SDS011;14925;51.026;13.752;2022-12-13T15:10:19;39.63;;;19.67;;
27489;SDS011;14925;51.026;13.752;2022-12-13T15:13:01;39.08;;;19.30;;
27489;SDS011;14925;51.026;13.752;2022-12-13T15:15:34;42.22;;;19.58;;
27489;SDS011;14925;51.026;13.752;2022-12-13T15:18:17;41.22;;;19.45;;
27489;SDS011;14925;51.026;13.752;2022-12-13T15:20:43;39.13;;;19.20;;
27489;SDS011;14925;51.026;13.752;2022-12-13T15:26:07;38.45;;;19.10;;
27489;SDS011;14925;51.026;13.752;2022-12-13T15:28:36;41.30;;;19.77;;
27489;SDS011;14925;51.026;13.752;2022-12-13T15:31:10;36.90;;;17.95;;
27489;SDS011;14925;51.026;13.752;2022-12-13T15:33:36;40.63;;;19.20;;
27489;SDS011;14925;51.026;13.752;2022-12-13T15:36:06;43.13;;;19.38;;
27489;SDS011;14925;51.026;13.752;2022-12-13T15:38:34;40.13;;;19.65;;
27489;SDS011;14925;51.026;13.752;2022-12-13T15:41:01;40.88;;;18.92;;
27489;SDS011;14925;51.026;13.752;2022-12-13T15:43:47;46.63;;;21.45;;
27489;SDS011;14925;51.026;13.752;2022-12-13T15:46:22;49.58;;;23.20;;
27489;SDS011;14925;51.026;13.752;2022-12-13T15:48:48;41.20;;;20.88;;
27489;SDS011;14925;51.026;13.752;2022-12-13T15:51:15;46.05;;;21.17;;
27489;SDS011;14925;51.026;13.752;2022-12-13T15:54:02;46.55;;;20.73;;
27489;SDS011;14925;51.026;13.752;2022-12-13T15:56:34;42.47;;;20.70;;
27489;SDS011;14925;51.026;13.752;2022-12-13T15:59:00;42.60;;;20.88;;
27489;SDS011;14925;51.026;13.752;2022-12-13T16:01:30;43.17;;;20.50;;
27489;SDS011;14925;51.026;13.752;2022-12-13T16:03:59;44.10;;;19.52;;
27489;SDS011;14925;51.026;13.752;2022-12-13T16:06:28;39.28;;;19.08;;
27489;SDS011;14925;51.026;13.752;2022-12-13T16:08:55;43.03;;;20.45;;
27489;SDS011;14925;51.026;13.752;2022-12-13T16:14:03;47.50;;;22.48;;
27489;SDS011;14925;51.026;13.752;2022-12-13T16:16:55;47.38;;;22.25;;
27489;SDS011;14925;51.026;13.752;2022-12-13T16:19:23;44.92;;;22.55;;
27489;SDS011;14925;51.026;13.752;2022-12-13T16:21:48;47.90;;;21.80;;
27489;SDS011;14925;51.026;13.752;2022-12-13T16:24:14;43.85;;;20.67;;